PIK weather

Glasgow Prestwick Airport
Glasgow, Scotland, United Kingdom

Public forecast

Using degrees Celsius for public forecast. Weather courtesy of forecast.io.

Current aviation weather report (METAR) for Glasgow Prestwick Airport

Retrieved 2019/10/21 22:20 UTC (43 seconds ago):

EGPK 212220Z 22009KT 9999 FEW030 10/04 Q1021

Aviation forecast (TAF) for Glasgow Prestwick Airport

Retrieved 2019/10/21 18:00 UTC (4 hours ago):

TAF EGPK 211657Z 2118/2218 23009KT 9999 FEW015 SCT025 PROB30 TEMPO 2200/2218 24015G25KT